Chadstone Weather > Observations for 05/03/21

Select Day:



Observations
Time Temp Hum DP Wind Gust Dir Rain >9am Press
C % C kph kph mm hPa
00:00 16.7 91 15.2 3.3 19.4 WSW 1.8 997.4
00:10 16.5 92 15.2 1.8 7.2 S 1.8 997.3
00:20 16.5 93 15.4 1.3 7.2 SSE 1.8 997.3
00:30 16.2 93 15.1 2.1 8.6 E 1.8 997.2
00:40 16.1 93 15.0 1.7 8.6 SSW 1.8 997.2
00:50 16.0 93 14.9 1.5 7.2 SSW 1.8 997.0
01:00 15.8 93 14.7 2.3 13.3 SSE 1.8 997.1
01:10 15.8 92 14.5 1.8 13.3 S 1.8 997.1
01:20 15.9 89 14.1 3.1 15.8 WSW 1.8 997.3
01:30 16.0 86 13.7 2.9 13.3 W 1.8 997.1
01:40 15.9 87 13.7 1.1 12.2 SW 1.8 997.5
01:50 15.8 86 13.5 0.7 5.0 SW 1.8 997.2
02:00 15.8 86 13.5 0.6 7.2 SSE 2.1 997.5
02:10 15.8 87 13.6 1.3 13.3 S 2.1 997.3
02:20 15.8 86 13.5 0.6 8.6 SW 2.1 997.4
02:30 15.8 86 13.5 0.7 7.2 S 2.1 997.4
02:40 15.6 85 13.1 1.1 9.7 SSE 2.1 997.5
02:50 15.6 83 12.7 1.9 11.2 SSW 2.1 997.4
03:00 15.5 83 12.6 1.4 8.6 W 2.1 997.3
03:10 15.4 82 12.3 2.6 9.7 W 2.1 997.3
03:20 15.3 80 11.9 2.4 7.2 SW 2.1 997.2
03:30 15.3 78 11.5 0.4 5.0 W 2.1 997.1
03:40 15.3 77 11.3 1.0 8.6 SSW 2.1 997.0
03:50 15.3 76 11.1 0.7 9.7 S 2.1 997.0
04:00 15.4 75 11.0 1.4 7.2 S 2.1 997.0
04:10 15.4 76 11.2 3.8 15.8 S 2.1 996.9
04:20 15.4 76 11.2 2.5 15.8 SSW 2.1 997.0
04:30 15.4 78 11.6 1.9 8.6 S 2.1 996.9
04:40 15.2 81 12.0 3.2 12.2 S 2.1 996.9
04:50 14.9 84 12.2 2.9 11.2 S 2.1 997.1
05:00 14.9 85 12.4 0.8 7.2 SSE 2.1 997.0
05:10 14.7 86 12.4 0.5 5.0 SSW 2.1 997.0
05:20 14.7 86 12.4 2.0 9.7 SSW 2.1 997.2
05:30 14.7 86 12.4 1.0 7.2 SSW 2.1 997.2
05:40 14.7 85 12.2 1.0 8.6 SSE 2.1 996.9
05:50 14.8 84 12.1 0.5 7.2 SSW 2.1 997.1
06:00 15.0 80 11.6 3.3 22.0 S 2.1 997.4
06:10 14.9 78 11.1 4.2 23.4 S 2.1 997.5
06:20 14.9 76 10.7 3.0 11.2 SSW 2.1 997.7
06:30 14.8 74 10.2 3.6 17.3 S 2.1 997.8
06:40 14.7 70 9.3 2.6 9.7 SSW 2.1 998.0
06:50 14.7 70 9.3 1.2 6.1 S 2.1 998.0
07:00 14.8 70 9.4 0.9 7.2 S 2.1 998.2
07:10 14.8 70 9.4 0.8 7.2 S 2.1 998.4
07:20 14.9 70 9.5 0.4 6.1 SSE 2.1 998.5
07:30 15.0 70 9.6 0.9 12.2 W 2.1 998.7
07:40 15.1 71 9.9 2.1 12.2 SSE 2.1 998.8
07:50 15.2 71 10.0 1.3 8.6 S 2.1 999.0
08:00 15.2 69 9.6 3.7 13.3 S 2.1 999.3
08:10 15.2 67 9.1 4.2 14.8 S 2.1 999.3
08:20 15.2 66 8.9 4.5 18.4 SE 2.1 999.3
08:30 15.3 66 9.0 2.3 12.2 S 2.1 999.4
08:40 15.4 65 8.9 2.5 11.2 S 2.1 999.4
08:50 15.4 66 9.1 3.8 14.8 S 2.1 999.5
09:00 15.4 68 9.5 2.2 12.2 SSW 2.1 999.6
09:10 15.4 69 9.7 2.9 20.9 S 2.1 999.6
09:20 15.4 71 10.2 5.7 17.3 S 2.1 999.9
09:30 15.1 74 10.5 7.8 25.6 SSE 2.1 999.8
09:40 15.3 73 10.5 7.1 23.4 SSE 2.1 999.8
09:50 15.4 73 10.6 5.0 19.4 SSE 2.1 1000.0
10:00 15.6 72 10.6 2.8 11.2 S 0.0 1000.1
10:10 15.6 67 9.5 6.4 20.9 S 0.0 1000.1
10:20 15.7 65 9.1 6.9 19.4 SSE 0.0 1000.2
10:30 15.8 65 9.2 6.9 18.4 S 0.0 1000.3
10:40 15.8 65 9.2 8.0 19.4 SSE 0.0 1000.3
10:50 15.8 65 9.2 3.5 15.8 SSW 0.0 1000.3
11:00 16.1 63 9.1 4.1 14.8 SSE 0.0 1000.4
11:10 16.4 62 9.1 2.7 14.8 SSW 0.0 1000.3
11:20 16.5 62 9.2 2.7 13.3 N 0.0 1000.3
11:30 16.5 62 9.2 5.4 19.4 SSE 0.0 1000.4
11:40 16.6 62 9.3 4.1 19.4 SSE 0.0 1000.5
11:50 16.7 60 8.9 3.1 14.8 SW 0.0 1000.5
12:00 16.9 60 9.1 4.1 18.4 SSW 0.0 1000.5
12:10 17.0 58 8.7 4.1 17.3 S 0.0 1000.4
12:20 17.1 58 8.8 4.2 12.2 SSW 0.0 1000.5
12:30 17.6 58 9.2 5.7 15.8 SW 0.0 1000.3
12:40 17.8 55 8.6 5.5 18.4 SSE 0.0 1000.4
12:50 17.6 56 8.7 3.5 11.2 S 0.0 1000.4
13:00 17.5 58 9.2 4.7 18.4 WNW 0.0 1000.5
13:10 17.3 61 9.7 3.5 11.2 S 0.0 1000.5
13:20 17.4 60 9.6 8.1 22.0 SSW 0.0 1000.5
13:30 17.8 61 10.2 4.9 14.8 S 0.0 1000.3
13:40 17.6 61 10.0 4.4 18.4 SSW 0.0 1000.3
13:50 17.4 61 9.8 6.6 15.8 S 0.0 1000.4
14:00 17.4 60 9.6 5.1 15.8 S 0.0 1000.4
14:10 17.5 59 9.4 3.9 17.3 SSE 0.0 1000.3
14:20 17.7 56 8.8 5.6 20.9 S 0.0 1000.3
14:30 17.9 57 9.3 4.6 18.4 S 0.0 1000.3
14:40 17.9 58 9.5 6.4 25.6 S 0.0 1000.1
14:50 17.9 59 9.8 5.4 27.0 SSE 0.0 1000.1
15:00 18.2 58 9.8 4.6 19.4 SE 0.0 1000.1
15:10 18.3 56 9.4 6.6 17.3 SSE 0.0 1000.0
15:20 18.2 57 9.6 7.2 24.5 SW 0.0 1000.0
15:30 18.1 55 8.9 5.2 15.8 S 0.0 1000.0
15:40 17.9 57 9.3 4.1 14.8 SSE 0.0 999.9
15:50 18.1 57 9.5 5.3 14.8 S 0.0 999.9
16:00 18.0 56 9.1 4.8 14.8 WSW 0.0 1000.0
16:10 17.9 56 9.0 3.8 17.3 SSW 0.0 999.8
16:20 17.8 56 8.9 5.3 15.8 SSE 0.0 999.8
16:30 17.9 56 9.0 4.6 15.8 SSW 0.0 999.6
16:40 18.2 56 9.3 6.0 17.3 WSW 0.0 999.6
16:50 18.1 57 9.5 3.5 14.8 SSW 0.0 999.8
17:00 17.6 59 9.5 4.3 13.3 SSE 0.0 999.9
17:10 17.1 61 9.5 4.4 11.2 S 0.0 1000.0
17:20 17.2 62 9.9 2.8 13.3 SSE 0.0 999.9
17:30 17.1 62 9.8 4.4 15.8 SSE 0.0 999.9
17:40 17.1 61 9.5 6.1 20.9 W 0.0 999.8
17:50 17.1 61 9.5 5.0 13.3 N 0.0 999.9
18:00 16.8 62 9.5 5.0 18.4 SSW 0.0 1000.0
18:10 16.7 62 9.4 4.3 18.4 SSW 0.0 999.9
18:20 16.8 62 9.5 4.2 13.3 ESE 0.0 999.9
18:30 16.7 61 9.1 2.7 11.2 SW 0.0 1000.5
18:40 16.6 62 9.3 3.7 14.8 SSW 0.0 1000.6
18:50 16.5 64 9.7 3.2 14.8 SSE 0.0 1000.6
19:00 16.5 62 9.2 2.6 8.6 S 0.0 1000.7
19:10 16.5 60 8.7 3.1 8.6 SSE 0.0 1000.6
19:20 16.4 60 8.6 2.7 7.2 SSW 0.0 1000.9
19:30 16.3 61 8.8 2.8 8.6 S 0.0 1000.9
19:40 16.2 61 8.7 3.9 14.8 S 0.0 1000.8
19:50 16.2 62 8.9 3.1 13.3 SSW 0.0 1000.7
20:00 16.1 62 8.8 2.3 7.2 SSW 0.0 1000.8
20:10 16.1 61 8.6 1.5 9.7 SSW 0.0 1000.8
20:20 16.0 62 8.7 1.4 9.7 SSW 0.0 1001.0
20:30 16.0 64 9.2 1.7 7.2 WSW 0.0 1001.0
20:40 16.0 65 9.4 5.0 11.2 SSE 0.0 1001.0
20:50 16.0 65 9.4 4.2 13.3 S 0.0 1001.1
21:00 15.9 66 9.6 3.7 9.7 SSW 0.0 1001.1
21:10 15.9 64 9.1 2.4 12.2 SW 0.0 1001.2
21:20 15.9 65 9.3 1.9 12.2 SSE 0.0 1001.6
21:30 15.9 65 9.3 5.9 17.3 SSE 0.0 1001.4
21:40 15.8 64 9.0 4.2 15.8 SSE 0.0 1001.6
21:50 15.7 65 9.1 6.2 17.3 S 0.0 1001.7
22:00 15.6 65 9.1 3.2 11.2 SW 0.0 1001.7
22:10 15.6 65 9.1 5.4 12.2 SSW 0.0 1001.8
22:20 15.6 65 9.1 4.0 12.2 S 0.0 1001.9
22:30 15.5 65 9.0 5.5 14.8 S 0.0 1001.8
22:40 15.5 65 9.0 5.3 20.9 SSE 0.0 1001.7
22:50 15.5 65 9.0 7.0 18.4 SSE 0.0 1001.4
23:00 15.5 65 9.0 3.5 12.2 S 0.0 1001.3
23:10 15.4 64 8.6 5.5 18.4 SSW 0.0 1001.1
23:20 15.4 65 8.9 5.4 23.4 SSE 0.0 1001.0
23:30 15.3 65 8.8 3.9 18.4 SSE 0.0 1001.0
23:40 15.2 65 8.7 5.2 17.3 S 0.0 1001.0
23:50 15.1 65 8.6 7.5 22.0 S 0.0 1000.7